Hyattville, Wyoming
Current Conditions -  °F | °C
As of 12:53 PM on Thursday 27 Nov 2014 (Local Time) from KWRL Reporting Station
Clear Clear  
Wind Chill: 23°   Ceiling: Unl
Heat Index: 31°   Visibility: 10mi
Dew Point: 27°   Wind: 8mph
Humidity: 85%   Direction: 190°S
Pressure: 30.01"   Gusts: NA
Location:  44.25°N, 107.6°W
Report Text: KWRL 271953Z AUTO 19007KT 10SM CLR M01/M03 A3001 RMK AO2 SLP203 T10061028
Loading
Personal Weather Stations






























Interactive Weather Map New forecast layout! Learn more

10-Day Weather Forecast

Advertisements
Track Severe Weather on mobile